sensor_id;sensor_type;location;lat;lon;timestamp;P1;durP1;ratioP1;P2;durP2;ratioP2
2388;SDS011;1205;47.984;7.668;2024-03-08T00:01:47;24.97;;;12.80;;
2388;SDS011;1205;47.984;7.668;2024-03-08T00:04:13;23.17;;;12.33;;
2388;SDS011;1205;47.984;7.668;2024-03-08T00:06:40;25.90;;;13.90;;
2388;SDS011;1205;47.984;7.668;2024-03-08T00:09:06;24.57;;;13.73;;
2388;SDS011;1205;47.984;7.668;2024-03-08T00:11:33;24.07;;;13.13;;
2388;SDS011;1205;47.984;7.668;2024-03-08T00:13:59;23.03;;;13.40;;
2388;SDS011;1205;47.984;7.668;2024-03-08T00:16:25;28.17;;;14.63;;
2388;SDS011;1205;47.984;7.668;2024-03-08T00:18:51;27.73;;;14.20;;
2388;SDS011;1205;47.984;7.668;2024-03-08T00:21:16;25.87;;;13.70;;
2388;SDS011;1205;47.984;7.668;2024-03-08T00:23:42;25.57;;;12.60;;
2388;SDS011;1205;47.984;7.668;2024-03-08T00:26:08;24.97;;;13.03;;
2388;SDS011;1205;47.984;7.668;2024-03-08T00:28:33;24.80;;;13.30;;
2388;SDS011;1205;47.984;7.668;2024-03-08T00:30:59;24.00;;;12.50;;
2388;SDS011;1205;47.984;7.668;2024-03-08T00:33:25;27.13;;;13.13;;
2388;SDS011;1205;47.984;7.668;2024-03-08T00:35:52;21.73;;;11.50;;
2388;SDS011;1205;47.984;7.668;2024-03-08T00:38:18;23.87;;;14.37;;
2388;SDS011;1205;47.984;7.668;2024-03-08T00:40:44;26.63;;;13.40;;
2388;SDS011;1205;47.984;7.668;2024-03-08T00:43:10;22.90;;;12.90;;
2388;SDS011;1205;47.984;7.668;2024-03-08T00:45:35;25.73;;;13.77;;
2388;SDS011;1205;47.984;7.668;2024-03-08T00:48:02;25.60;;;13.57;;
2388;SDS011;1205;47.984;7.668;2024-03-08T00:50:28;26.53;;;13.60;;
2388;SDS011;1205;47.984;7.668;2024-03-08T00:52:54;22.70;;;12.50;;
2388;SDS011;1205;47.984;7.668;2024-03-08T00:55:19;27.00;;;13.10;;
2388;SDS011;1205;47.984;7.668;2024-03-08T00:57:45;23.80;;;11.67;;
2388;SDS011;1205;47.984;7.668;2024-03-08T01:00:11;21.73;;;11.30;;
2388;SDS011;1205;47.984;7.668;2024-03-08T01:02:38;21.77;;;11.80;;
2388;SDS011;1205;47.984;7.668;2024-03-08T01:05:04;25.10;;;12.57;;
2388;SDS011;1205;47.984;7.668;2024-03-08T01:07:33;20.23;;;10.30;;
2388;SDS011;1205;47.984;7.668;2024-03-08T01:10:00;19.10;;;10.93;;
2388;SDS011;1205;47.984;7.668;2024-03-08T01:12:26;22.73;;;11.90;;
2388;SDS011;1205;47.984;7.668;2024-03-08T01:14:51;22.07;;;11.33;;
2388;SDS011;1205;47.984;7.668;2024-03-08T01:17:17;25.53;;;13.17;;
2388;SDS011;1205;47.984;7.668;2024-03-08T01:19:43;22.70;;;12.10;;
2388;SDS011;1205;47.984;7.668;2024-03-08T01:22:10;16.70;;;10.57;;
2388;SDS011;1205;47.984;7.668;2024-03-08T01:24:35;20.10;;;11.37;;
2388;SDS011;1205;47.984;7.668;2024-03-08T01:27:02;18.73;;;11.47;;
2388;SDS011;1205;47.984;7.668;2024-03-08T01:29:27;23.77;;;12.50;;
2388;SDS011;1205;47.984;7.668;2024-03-08T01:31:54;18.50;;;10.80;;
2388;SDS011;1205;47.984;7.668;2024-03-08T01:34:21;18.00;;;11.00;;
2388;SDS011;1205;47.984;7.668;2024-03-08T01:36:47;23.90;;;11.90;;
2388;SDS011;1205;47.984;7.668;2024-03-08T01:39:13;18.73;;;10.73;;
2388;SDS011;1205;47.984;7.668;2024-03-08T01:41:39;21.53;;;11.63;;
2388;SDS011;1205;47.984;7.668;2024-03-08T01:44:05;22.00;;;11.33;;
2388;SDS011;1205;47.984;7.668;2024-03-08T01:46:32;22.13;;;11.90;;
2388;SDS011;1205;47.984;7.668;2024-03-08T01:48:59;18.50;;;10.90;;
2388;SDS011;1205;47.984;7.668;2024-03-08T01:51:26;22.27;;;11.30;;
2388;SDS011;1205;47.984;7.668;2024-03-08T01:53:53;21.23;;;11.47;;
2388;SDS011;1205;47.984;7.668;2024-03-08T01:56:20;18.40;;;10.33;;
2388;SDS011;1205;47.984;7.668;2024-03-08T01:58:46;21.80;;;11.87;;
2388;SDS011;1205;47.984;7.668;2024-03-08T02:01:12;25.97;;;11.63;;
2388;SDS011;1205;47.984;7.668;2024-03-08T02:03:41;20.10;;;11.63;;
2388;SDS011;1205;47.984;7.668;2024-03-08T02:06:09;26.53;;;13.63;;
2388;SDS011;1205;47.984;7.668;2024-03-08T02:08:36;20.53;;;11.87;;
2388;SDS011;1205;47.984;7.668;2024-03-08T02:11:03;22.77;;;11.60;;
2388;SDS011;1205;47.984;7.668;2024-03-08T02:13:29;22.57;;;12.07;;
2388;SDS011;1205;47.984;7.668;2024-03-08T02:15:55;22.83;;;12.30;;
2388;SDS011;1205;47.984;7.668;2024-03-08T02:18:24;20.80;;;11.77;;
2388;SDS011;1205;47.984;7.668;2024-03-08T02:20:53;22.20;;;11.87;;
2388;SDS011;1205;47.984;7.668;2024-03-08T02:23:23;21.77;;;11.47;;
2388;SDS011;1205;47.984;7.668;2024-03-08T02:25:52;20.40;;;12.63;;
2388;SDS011;1205;47.984;7.668;2024-03-08T02:28:19;23.40;;;11.80;;
2388;SDS011;1205;47.984;7.668;2024-03-08T02:30:48;22.03;;;11.73;;
2388;SDS011;1205;47.984;7.668;2024-03-08T02:33:16;19.77;;;11.50;;
2388;SDS011;1205;47.984;7.668;2024-03-08T02:35:42;20.60;;;12.53;;
2388;SDS011;1205;47.984;7.668;2024-03-08T02:38:10;19.87;;;10.87;;
2388;SDS011;1205;47.984;7.668;2024-03-08T02:40:41;23.97;;;11.53;;
2388;SDS011;1205;47.984;7.668;2024-03-08T02:43:08;21.67;;;11.67;;
2388;SDS011;1205;47.984;7.668;2024-03-08T02:45:34;22.03;;;11.63;;
2388;SDS011;1205;47.984;7.668;2024-03-08T02:48:00;20.13;;;11.67;;
2388;SDS011;1205;47.984;7.668;2024-03-08T02:50:27;19.83;;;10.93;;
2388;SDS011;1205;47.984;7.668;2024-03-08T02:52:52;18.97;;;11.23;;
2388;SDS011;1205;47.984;7.668;2024-03-08T02:55:18;22.03;;;10.47;;
2388;SDS011;1205;47.984;7.668;2024-03-08T02:57:43;20.90;;;11.90;;
2388;SDS011;1205;47.984;7.668;2024-03-08T03:00:09;18.13;;;10.57;;
2388;SDS011;1205;47.984;7.668;2024-03-08T03:02:35;18.47;;;10.60;;
2388;SDS011;1205;47.984;7.668;2024-03-08T03:05:02;23.23;;;12.27;;
2388;SDS011;1205;47.984;7.668;2024-03-08T03:07:31;21.60;;;11.50;;
2388;SDS011;1205;47.984;7.668;2024-03-08T03:09:58;22.77;;;11.60;;
2388;SDS011;1205;47.984;7.668;2024-03-08T03:12:25;24.27;;;12.07;;
2388;SDS011;1205;47.984;7.668;2024-03-08T03:14:54;21.73;;;11.43;;
2388;SDS011;1205;47.984;7.668;2024-03-08T03:17:21;21.00;;;10.80;;
2388;SDS011;1205;47.984;7.668;2024-03-08T03:19:47;20.93;;;11.33;;
2388;SDS011;1205;47.984;7.668;2024-03-08T03:22:13;19.47;;;10.10;;
2388;SDS011;1205;47.984;7.668;2024-03-08T03:24:38;19.60;;;10.57;;
2388;SDS011;1205;47.984;7.668;2024-03-08T03:27:04;25.03;;;11.03;;
2388;SDS011;1205;47.984;7.668;2024-03-08T03:29:39;17.50;;;10.67;;
2388;SDS011;1205;47.984;7.668;2024-03-08T03:32:07;19.50;;;10.70;;
2388;SDS011;1205;47.984;7.668;2024-03-08T03:34:33;24.90;;;11.50;;
2388;SDS011;1205;47.984;7.668;2024-03-08T03:37:03;19.03;;;11.27;;
2388;SDS011;1205;47.984;7.668;2024-03-08T03:39:29;18.07;;;9.80;;
2388;SDS011;1205;47.984;7.668;2024-03-08T03:41:59;21.97;;;10.60;;
2388;SDS011;1205;47.984;7.668;2024-03-08T03:44:30;19.83;;;10.50;;
2388;SDS011;1205;47.984;7.668;2024-03-08T03:46:57;27.10;;;11.63;;
2388;SDS011;1205;47.984;7.668;2024-03-08T03:49:23;17.83;;;9.83;;
2388;SDS011;1205;47.984;7.668;2024-03-08T03:51:48;20.43;;;11.10;;
2388;SDS011;1205;47.984;7.668;2024-03-08T03:54:14;24.20;;;11.00;;
2388;SDS011;1205;47.984;7.668;2024-03-08T03:56:39;23.13;;;11.40;;
2388;SDS011;1205;47.984;7.668;2024-03-08T03:59:05;22.60;;;10.57;;
2388;SDS011;1205;47.984;7.668;2024-03-08T04:01:32;18.90;;;10.47;;
2388;SDS011;1205;47.984;7.668;2024-03-08T04:03:59;23.60;;;11.53;;
2388;SDS011;1205;47.984;7.668;2024-03-08T04:06:24;20.97;;;10.80;;
2388;SDS011;1205;47.984;7.668;2024-03-08T04:08:50;22.37;;;11.90;;
2388;SDS011;1205;47.984;7.668;2024-03-08T04:11:15;21.20;;;11.73;;
2388;SDS011;1205;47.984;7.668;2024-03-08T04:13:41;17.80;;;10.17;;
2388;SDS011;1205;47.984;7.668;2024-03-08T04:16:10;21.40;;;10.97;;
2388;SDS011;1205;47.984;7.668;2024-03-08T04:18:36;21.00;;;10.53;;
2388;SDS011;1205;47.984;7.668;2024-03-08T04:21:03;17.60;;;10.27;;
2388;SDS011;1205;47.984;7.668;2024-03-08T04:23:33;21.10;;;11.20;;
2388;SDS011;1205;47.984;7.668;2024-03-08T04:26:01;24.27;;;12.70;;
2388;SDS011;1205;47.984;7.668;2024-03-08T04:28:29;24.40;;;12.33;;
2388;SDS011;1205;47.984;7.668;2024-03-08T04:30:54;22.73;;;12.90;;
2388;SDS011;1205;47.984;7.668;2024-03-08T04:33:20;23.90;;;12.80;;
2388;SDS011;1205;47.984;7.668;2024-03-08T04:35:46;25.90;;;13.43;;
2388;SDS011;1205;47.984;7.668;2024-03-08T04:38:12;23.87;;;13.33;;
2388;SDS011;1205;47.984;7.668;2024-03-08T04:40:38;27.63;;;13.70;;
2388;SDS011;1205;47.984;7.668;2024-03-08T04:43:04;32.50;;;13.90;;
2388;SDS011;1205;47.984;7.668;2024-03-08T04:45:30;25.70;;;13.30;;
2388;SDS011;1205;47.984;7.668;2024-03-08T04:47:55;26.23;;;13.50;;
2388;SDS011;1205;47.984;7.668;2024-03-08T04:50:21;30.53;;;13.47;;
2388;SDS011;1205;47.984;7.668;2024-03-08T04:52:47;27.13;;;12.80;;
2388;SDS011;1205;47.984;7.668;2024-03-08T04:55:13;27.87;;;13.00;;
2388;SDS011;1205;47.984;7.668;2024-03-08T04:57:39;24.90;;;12.77;;
2388;SDS011;1205;47.984;7.668;2024-03-08T05:00:04;29.10;;;13.50;;
2388;SDS011;1205;47.984;7.668;2024-03-08T05:02:36;23.93;;;12.50;;
2388;SDS011;1205;47.984;7.668;2024-03-08T05:05:03;27.90;;;11.53;;
2388;SDS011;1205;47.984;7.668;2024-03-08T05:07:31;22.50;;;12.13;;
2388;SDS011;1205;47.984;7.668;2024-03-08T05:09:57;26.30;;;12.50;;
2388;SDS011;1205;47.984;7.668;2024-03-08T05:12:23;23.30;;;11.83;;
2388;SDS011;1205;47.984;7.668;2024-03-08T05:14:49;31.07;;;12.87;;
2388;SDS011;1205;47.984;7.668;2024-03-08T05:17:15;27.33;;;12.97;;
2388;SDS011;1205;47.984;7.668;2024-03-08T05:19:41;21.17;;;11.73;;
2388;SDS011;1205;47.984;7.668;2024-03-08T05:22:07;22.07;;;11.20;;
2388;SDS011;1205;47.984;7.668;2024-03-08T05:24:33;18.60;;;10.60;;
2388;SDS011;1205;47.984;7.668;2024-03-08T05:26:59;19.87;;;10.40;;
2388;SDS011;1205;47.984;7.668;2024-03-08T05:29:25;20.60;;;10.57;;
2388;SDS011;1205;47.984;7.668;2024-03-08T05:31:51;20.43;;;11.03;;
2388;SDS011;1205;47.984;7.668;2024-03-08T05:34:17;19.80;;;10.43;;
2388;SDS011;1205;47.984;7.668;2024-03-08T05:36:44;20.60;;;10.70;;
2388;SDS011;1205;47.984;7.668;2024-03-08T05:39:11;21.27;;;11.57;;
2388;SDS011;1205;47.984;7.668;2024-03-08T05:41:38;26.43;;;11.20;;
2388;SDS011;1205;47.984;7.668;2024-03-08T05:44:05;20.00;;;11.10;;
2388;SDS011;1205;47.984;7.668;2024-03-08T05:46:31;23.87;;;12.73;;
2388;SDS011;1205;47.984;7.668;2024-03-08T05:48:57;28.30;;;14.17;;
2388;SDS011;1205;47.984;7.668;2024-03-08T05:51:24;19.60;;;11.50;;
2388;SDS011;1205;47.984;7.668;2024-03-08T05:53:52;21.53;;;10.80;;
2388;SDS011;1205;47.984;7.668;2024-03-08T05:56:18;20.30;;;10.40;;
2388;SDS011;1205;47.984;7.668;2024-03-08T05:58:44;23.60;;;12.30;;
2388;SDS011;1205;47.984;7.668;2024-03-08T06:01:10;21.33;;;11.10;;
2388;SDS011;1205;47.984;7.668;2024-03-08T06:03:37;17.60;;;10.67;;
2388;SDS011;1205;47.984;7.668;2024-03-08T06:06:09;22.17;;;11.57;;
2388;SDS011;1205;47.984;7.668;2024-03-08T06:08:38;18.43;;;10.23;;
2388;SDS011;1205;47.984;7.668;2024-03-08T06:11:04;20.43;;;11.33;;
2388;SDS011;1205;47.984;7.668;2024-03-08T06:13:31;22.37;;;12.27;;
2388;SDS011;1205;47.984;7.668;2024-03-08T06:15:57;23.87;;;11.40;;
2388;SDS011;1205;47.984;7.668;2024-03-08T06:18:22;20.57;;;11.13;;
2388;SDS011;1205;47.984;7.668;2024-03-08T06:20:48;22.10;;;11.80;;
2388;SDS011;1205;47.984;7.668;2024-03-08T06:23:14;21.57;;;12.80;;
2388;SDS011;1205;47.984;7.668;2024-03-08T06:25:45;22.47;;;11.67;;
2388;SDS011;1205;47.984;7.668;2024-03-08T06:28:11;25.17;;;13.50;;
2388;SDS011;1205;47.984;7.668;2024-03-08T06:30:37;23.30;;;11.47;;
2388;SDS011;1205;47.984;7.668;2024-03-08T06:33:02;19.90;;;12.50;;
2388;SDS011;1205;47.984;7.668;2024-03-08T06:35:28;24.30;;;13.00;;
2388;SDS011;1205;47.984;7.668;2024-03-08T06:37:56;24.43;;;12.63;;
2388;SDS011;1205;47.984;7.668;2024-03-08T06:40:23;20.33;;;11.20;;
2388;SDS011;1205;47.984;7.668;2024-03-08T06:42:48;27.93;;;12.70;;
2388;SDS011;1205;47.984;7.668;2024-03-08T06:45:14;23.83;;;13.30;;
2388;SDS011;1205;47.984;7.668;2024-03-08T06:47:44;23.93;;;12.77;;
2388;SDS011;1205;47.984;7.668;2024-03-08T06:50:10;32.70;;;13.20;;
2388;SDS011;1205;47.984;7.668;2024-03-08T06:52:36;24.90;;;13.27;;
2388;SDS011;1205;47.984;7.668;2024-03-08T06:55:02;21.43;;;11.87;;
2388;SDS011;1205;47.984;7.668;2024-03-08T06:57:30;26.83;;;12.80;;
2388;SDS011;1205;47.984;7.668;2024-03-08T06:59:56;24.17;;;12.40;;
2388;SDS011;1205;47.984;7.668;2024-03-08T07:02:22;30.33;;;15.37;;
2388;SDS011;1205;47.984;7.668;2024-03-08T07:04:49;28.67;;;14.20;;
2388;SDS011;1205;47.984;7.668;2024-03-08T07:07:15;26.43;;;15.60;;
2388;SDS011;1205;47.984;7.668;2024-03-08T07:09:44;82.00;;;38.97;;
2388;SDS011;1205;47.984;7.668;2024-03-08T07:12:10;46.93;;;26.57;;
2388;SDS011;1205;47.984;7.668;2024-03-08T07:14:38;90.57;;;41.80;;
2388;SDS011;1205;47.984;7.668;2024-03-08T07:17:06;85.60;;;38.60;;
2388;SDS011;1205;47.984;7.668;2024-03-08T07:19:33;33.27;;;18.63;;
2388;SDS011;1205;47.984;7.668;2024-03-08T07:21:59;44.10;;;19.10;;
2388;SDS011;1205;47.984;7.668;2024-03-08T07:24:25;40.53;;;19.87;;
2388;SDS011;1205;47.984;7.668;2024-03-08T07:27:15;50.43;;;24.17;;
2388;SDS011;1205;47.984;7.668;2024-03-08T07:29:41;25.03;;;14.07;;
2388;SDS011;1205;47.984;7.668;2024-03-08T07:32:07;29.97;;;16.13;;
2388;SDS011;1205;47.984;7.668;2024-03-08T07:34:49;33.87;;;17.00;;
2388;SDS011;1205;47.984;7.668;2024-03-08T07:37:15;31.93;;;16.07;;
2388;SDS011;1205;47.984;7.668;2024-03-08T07:39:41;31.20;;;14.37;;
2388;SDS011;1205;47.984;7.668;2024-03-08T07:42:08;25.80;;;14.20;;
2388;SDS011;1205;47.984;7.668;2024-03-08T07:44:35;31.73;;;14.50;;
2388;SDS011;1205;47.984;7.668;2024-03-08T07:47:00;38.50;;;14.27;;
2388;SDS011;1205;47.984;7.668;2024-03-08T07:49:26;33.30;;;15.57;;
2388;SDS011;1205;47.984;7.668;2024-03-08T07:51:51;27.93;;;15.20;;
2388;SDS011;1205;47.984;7.668;2024-03-08T07:54:17;38.03;;;15.83;;
2388;SDS011;1205;47.984;7.668;2024-03-08T07:56:43;33.07;;;15.73;;
2388;SDS011;1205;47.984;7.668;2024-03-08T07:59:08;38.50;;;15.80;;
2388;SDS011;1205;47.984;7.668;2024-03-08T08:01:36;34.47;;;16.70;;
2388;SDS011;1205;47.984;7.668;2024-03-08T08:04:01;37.17;;;16.20;;
2388;SDS011;1205;47.984;7.668;2024-03-08T08:06:27;34.80;;;16.83;;
2388;SDS011;1205;47.984;7.668;2024-03-08T08:08:56;27.83;;;14.97;;
2388;SDS011;1205;47.984;7.668;2024-03-08T08:11:22;28.10;;;16.13;;
2388;SDS011;1205;47.984;7.668;2024-03-08T08:13:47;33.93;;;17.80;;
2388;SDS011;1205;47.984;7.668;2024-03-08T08:16:13;35.93;;;16.77;;
2388;SDS011;1205;47.984;7.668;2024-03-08T08:18:39;34.83;;;16.87;;
2388;SDS011;1205;47.984;7.668;2024-03-08T08:21:05;36.50;;;16.90;;
2388;SDS011;1205;47.984;7.668;2024-03-08T08:23:31;31.00;;;16.27;;
2388;SDS011;1205;47.984;7.668;2024-03-08T08:25:57;29.77;;;16.83;;
2388;SDS011;1205;47.984;7.668;2024-03-08T08:28:23;36.60;;;17.20;;
2388;SDS011;1205;47.984;7.668;2024-03-08T08:30:49;30.60;;;17.00;;
2388;SDS011;1205;47.984;7.668;2024-03-08T08:33:15;33.47;;;16.83;;
2388;SDS011;1205;47.984;7.668;2024-03-08T08:35:41;39.03;;;16.77;;
2388;SDS011;1205;47.984;7.668;2024-03-08T08:38:07;31.83;;;16.80;;
2388;SDS011;1205;47.984;7.668;2024-03-08T08:40:33;27.17;;;16.00;;
2388;SDS011;1205;47.984;7.668;2024-03-08T08:43:01;38.70;;;17.70;;
2388;SDS011;1205;47.984;7.668;2024-03-08T08:45:29;34.50;;;17.23;;
2388;SDS011;1205;47.984;7.668;2024-03-08T08:47:55;30.67;;;16.77;;
2388;SDS011;1205;47.984;7.668;2024-03-08T08:50:21;26.23;;;15.53;;
2388;SDS011;1205;47.984;7.668;2024-03-08T08:52:53;33.90;;;17.30;;
2388;SDS011;1205;47.984;7.668;2024-03-08T08:55:19;30.07;;;17.20;;
2388;SDS011;1205;47.984;7.668;2024-03-08T08:57:50;29.07;;;17.30;;
2388;SDS011;1205;47.984;7.668;2024-03-08T09:00:17;32.03;;;17.73;;
2388;SDS011;1205;47.984;7.668;2024-03-08T09:02:46;29.30;;;15.83;;
2388;SDS011;1205;47.984;7.668;2024-03-08T09:05:16;36.73;;;18.23;;
2388;SDS011;1205;47.984;7.668;2024-03-08T09:07:42;33.17;;;17.53;;
2388;SDS011;1205;47.984;7.668;2024-03-08T09:10:09;39.03;;;17.53;;
2388;SDS011;1205;47.984;7.668;2024-03-08T09:12:37;32.13;;;19.33;;
2388;SDS011;1205;47.984;7.668;2024-03-08T09:15:06;37.27;;;20.67;;
2388;SDS011;1205;47.984;7.668;2024-03-08T09:17:38;39.83;;;20.57;;
2388;SDS011;1205;47.984;7.668;2024-03-08T09:20:08;36.53;;;19.30;;
2388;SDS011;1205;47.984;7.668;2024-03-08T09:22:35;36.93;;;19.97;;
2388;SDS011;1205;47.984;7.668;2024-03-08T09:25:01;41.23;;;20.30;;
2388;SDS011;1205;47.984;7.668;2024-03-08T09:27:27;35.20;;;19.23;;
2388;SDS011;1205;47.984;7.668;2024-03-08T09:29:53;38.60;;;19.07;;
2388;SDS011;1205;47.984;7.668;2024-03-08T09:32:19;37.50;;;20.43;;
2388;SDS011;1205;47.984;7.668;2024-03-08T09:34:45;40.13;;;19.93;;
2388;SDS011;1205;47.984;7.668;2024-03-08T09:37:10;38.67;;;21.10;;
2388;SDS011;1205;47.984;7.668;2024-03-08T09:39:36;35.07;;;18.47;;
2388;SDS011;1205;47.984;7.668;2024-03-08T09:42:02;47.20;;;22.90;;
2388;SDS011;1205;47.984;7.668;2024-03-08T09:44:28;40.90;;;22.10;;
2388;SDS011;1205;47.984;7.668;2024-03-08T09:46:54;41.07;;;22.50;;
2388;SDS011;1205;47.984;7.668;2024-03-08T09:49:20;46.70;;;23.83;;
2388;SDS011;1205;47.984;7.668;2024-03-08T09:51:46;41.83;;;23.27;;
2388;SDS011;1205;47.984;7.668;2024-03-08T09:54:12;42.40;;;23.50;;
2388;SDS011;1205;47.984;7.668;2024-03-08T09:56:41;45.13;;;24.47;;
2388;SDS011;1205;47.984;7.668;2024-03-08T09:59:09;40.97;;;22.63;;
2388;SDS011;1205;47.984;7.668;2024-03-08T10:01:53;49.50;;;24.33;;
2388;SDS011;1205;47.984;7.668;2024-03-08T10:04:21;44.80;;;23.87;;
2388;SDS011;1205;47.984;7.668;2024-03-08T10:06:47;46.13;;;23.10;;
2388;SDS011;1205;47.984;7.668;2024-03-08T10:09:13;39.73;;;22.37;;
2388;SDS011;1205;47.984;7.668;2024-03-08T10:11:42;43.50;;;22.90;;
2388;SDS011;1205;47.984;7.668;2024-03-08T10:14:10;46.63;;;21.43;;
2388;SDS011;1205;47.984;7.668;2024-03-08T10:16:37;44.43;;;23.43;;
2388;SDS011;1205;47.984;7.668;2024-03-08T10:19:04;34.63;;;20.73;;
2388;SDS011;1205;47.984;7.668;2024-03-08T10:21:30;44.97;;;24.53;;
2388;SDS011;1205;47.984;7.668;2024-03-08T10:23:57;48.43;;;25.50;;
2388;SDS011;1205;47.984;7.668;2024-03-08T10:26:24;46.83;;;24.60;;
2388;SDS011;1205;47.984;7.668;2024-03-08T10:28:50;50.03;;;26.10;;
2388;SDS011;1205;47.984;7.668;2024-03-08T10:31:18;46.47;;;24.00;;
2388;SDS011;1205;47.984;7.668;2024-03-08T10:33:44;45.63;;;25.80;;
2388;SDS011;1205;47.984;7.668;2024-03-08T10:36:11;50.60;;;24.30;;
2388;SDS011;1205;47.984;7.668;2024-03-08T10:38:39;51.00;;;25.50;;
2388;SDS011;1205;47.984;7.668;2024-03-08T10:41:06;47.60;;;23.70;;
2388;SDS011;1205;47.984;7.668;2024-03-08T10:43:36;44.87;;;23.63;;
2388;SDS011;1205;47.984;7.668;2024-03-08T10:46:36;43.70;;;22.47;;
2388;SDS011;1205;47.984;7.668;2024-03-08T10:49:16;41.87;;;21.20;;
2388;SDS011;1205;47.984;7.668;2024-03-08T10:51:44;42.73;;;23.83;;
2388;SDS011;1205;47.984;7.668;2024-03-08T10:54:12;40.60;;;21.63;;
2388;SDS011;1205;47.984;7.668;2024-03-08T10:56:40;46.43;;;22.87;;
2388;SDS011;1205;47.984;7.668;2024-03-08T10:59:07;46.27;;;24.13;;
2388;SDS011;1205;47.984;7.668;2024-03-08T11:01:33;40.63;;;21.73;;
2388;SDS011;1205;47.984;7.668;2024-03-08T11:03:59;35.97;;;20.63;;
2388;SDS011;1205;47.984;7.668;2024-03-08T11:06:30;31.60;;;18.43;;
2388;SDS011;1205;47.984;7.668;2024-03-08T11:09:03;37.10;;;21.03;;
2388;SDS011;1205;47.984;7.668;2024-03-08T11:11:38;36.03;;;18.40;;
2388;SDS011;1205;47.984;7.668;2024-03-08T11:14:07;32.13;;;19.10;;
2388;SDS011;1205;47.984;7.668;2024-03-08T11:17:09;35.27;;;18.83;;
2388;SDS011;1205;47.984;7.668;2024-03-08T11:19:34;31.47;;;18.53;;
2388;SDS011;1205;47.984;7.668;2024-03-08T11:22:01;36.27;;;19.30;;
2388;SDS011;1205;47.984;7.668;2024-03-08T11:24:28;37.27;;;19.70;;
2388;SDS011;1205;47.984;7.668;2024-03-08T11:27:03;38.30;;;19.73;;
2388;SDS011;1205;47.984;7.668;2024-03-08T11:32:19;29.97;;;17.30;;
2388;SDS011;1205;47.984;7.668;2024-03-08T11:34:47;28.23;;;16.27;;
2388;SDS011;1205;47.984;7.668;2024-03-08T11:37:15;24.70;;;13.83;;
2388;SDS011;1205;47.984;7.668;2024-03-08T11:39:52;19.40;;;12.50;;
2388;SDS011;1205;47.984;7.668;2024-03-08T11:42:27;23.97;;;15.00;;
2388;SDS011;1205;47.984;7.668;2024-03-08T11:44:53;21.57;;;12.37;;
2388;SDS011;1205;47.984;7.668;2024-03-08T11:47:18;20.70;;;12.53;;
2388;SDS011;1205;47.984;7.668;2024-03-08T11:49:44;24.23;;;14.70;;
2388;SDS011;1205;47.984;7.668;2024-03-08T11:52:12;26.73;;;14.20;;
2388;SDS011;1205;47.984;7.668;2024-03-08T11:54:51;24.27;;;15.00;;
2388;SDS011;1205;47.984;7.668;2024-03-08T11:57:22;18.70;;;12.10;;
2388;SDS011;1205;47.984;7.668;2024-03-08T11:59:51;23.83;;;14.80;;
2388;SDS011;1205;47.984;7.668;2024-03-08T12:02:18;24.20;;;14.53;;
2388;SDS011;1205;47.984;7.668;2024-03-08T12:04:44;25.67;;;17.73;;
2388;SDS011;1205;47.984;7.668;2024-03-08T12:07:13;27.20;;;16.30;;
2388;SDS011;1205;47.984;7.668;2024-03-08T12:09:42;23.70;;;14.73;;
2388;SDS011;1205;47.984;7.668;2024-03-08T12:12:11;26.80;;;13.10;;
2388;SDS011;1205;47.984;7.668;2024-03-08T12:14:37;21.20;;;14.13;;
2388;SDS011;1205;47.984;7.668;2024-03-08T12:17:04;21.83;;;14.90;;
2388;SDS011;1205;47.984;7.668;2024-03-08T12:19:30;21.00;;;13.50;;
2388;SDS011;1205;47.984;7.668;2024-03-08T12:21:56;20.97;;;13.20;;
2388;SDS011;1205;47.984;7.668;2024-03-08T12:24:22;20.73;;;12.80;;
2388;SDS011;1205;47.984;7.668;2024-03-08T12:26:48;24.40;;;15.20;;
2388;SDS011;1205;47.984;7.668;2024-03-08T12:29:14;21.17;;;13.73;;
2388;SDS011;1205;47.984;7.668;2024-03-08T12:31:47;21.43;;;14.90;;
2388;SDS011;1205;47.984;7.668;2024-03-08T12:34:17;22.27;;;13.83;;
2388;SDS011;1205;47.984;7.668;2024-03-08T12:36:44;20.43;;;14.10;;
2388;SDS011;1205;47.984;7.668;2024-03-08T12:39:12;20.10;;;13.33;;
2388;SDS011;1205;47.984;7.668;2024-03-08T12:41:41;20.80;;;12.20;;
2388;SDS011;1205;47.984;7.668;2024-03-08T12:44:06;16.43;;;10.73;;
2388;SDS011;1205;47.984;7.668;2024-03-08T12:46:36;21.63;;;12.67;;
2388;SDS011;1205;47.984;7.668;2024-03-08T12:49:06;20.33;;;12.90;;
2388;SDS011;1205;47.984;7.668;2024-03-08T12:51:33;16.97;;;12.70;;
2388;SDS011;1205;47.984;7.668;2024-03-08T12:54:05;19.60;;;13.27;;
2388;SDS011;1205;47.984;7.668;2024-03-08T12:56:34;21.27;;;13.27;;
2388;SDS011;1205;47.984;7.668;2024-03-08T12:59:02;16.13;;;12.77;;
2388;SDS011;1205;47.984;7.668;2024-03-08T13:01:30;20.00;;;13.00;;
2388;SDS011;1205;47.984;7.668;2024-03-08T13:03:59;22.73;;;14.40;;
2388;SDS011;1205;47.984;7.668;2024-03-08T13:06:28;20.37;;;14.30;;
2388;SDS011;1205;47.984;7.668;2024-03-08T13:08:55;22.53;;;13.97;;
2388;SDS011;1205;47.984;7.668;2024-03-08T13:11:22;23.10;;;14.53;;
2388;SDS011;1205;47.984;7.668;2024-03-08T13:13:48;22.30;;;13.40;;
2388;SDS011;1205;47.984;7.668;2024-03-08T13:16:14;22.63;;;13.77;;
2388;SDS011;1205;47.984;7.668;2024-03-08T13:18:42;20.13;;;13.60;;
2388;SDS011;1205;47.984;7.668;2024-03-08T13:21:07;26.00;;;14.70;;
2388;SDS011;1205;47.984;7.668;2024-03-08T13:23:34;22.47;;;13.43;;
2388;SDS011;1205;47.984;7.668;2024-03-08T13:26:10;18.20;;;13.03;;
2388;SDS011;1205;47.984;7.668;2024-03-08T13:28:41;22.63;;;14.33;;
2388;SDS011;1205;47.984;7.668;2024-03-08T13:31:10;26.73;;;15.80;;
2388;SDS011;1205;47.984;7.668;2024-03-08T13:33:36;24.40;;;13.80;;
2388;SDS011;1205;47.984;7.668;2024-03-08T13:36:07;20.10;;;13.73;;
2388;SDS011;1205;47.984;7.668;2024-03-08T13:38:45;21.20;;;14.60;;
2388;SDS011;1205;47.984;7.668;2024-03-08T13:41:12;20.03;;;13.93;;
2388;SDS011;1205;47.984;7.668;2024-03-08T13:43:40;22.03;;;14.23;;
2388;SDS011;1205;47.984;7.668;2024-03-08T13:46:06;20.57;;;13.93;;
2388;SDS011;1205;47.984;7.668;2024-03-08T13:48:33;20.90;;;13.00;;
2388;SDS011;1205;47.984;7.668;2024-03-08T13:50:59;21.67;;;14.57;;
2388;SDS011;1205;47.984;7.668;2024-03-08T13:53:25;20.80;;;14.10;;
2388;SDS011;1205;47.984;7.668;2024-03-08T13:55:51;20.43;;;13.93;;
2388;SDS011;1205;47.984;7.668;2024-03-08T13:58:17;20.40;;;13.53;;
2388;SDS011;1205;47.984;7.668;2024-03-08T14:00:42;20.20;;;13.87;;
2388;SDS011;1205;47.984;7.668;2024-03-08T14:03:11;20.20;;;13.67;;
2388;SDS011;1205;47.984;7.668;2024-03-08T14:05:40;24.00;;;14.80;;
2388;SDS011;1205;47.984;7.668;2024-03-08T14:08:07;24.87;;;14.90;;
2388;SDS011;1205;47.984;7.668;2024-03-08T14:10:33;20.53;;;14.50;;
2388;SDS011;1205;47.984;7.668;2024-03-08T14:13:02;23.80;;;14.67;;
2388;SDS011;1205;47.984;7.668;2024-03-08T14:15:29;20.57;;;13.47;;
2388;SDS011;1205;47.984;7.668;2024-03-08T14:17:56;20.40;;;12.83;;
2388;SDS011;1205;47.984;7.668;2024-03-08T14:20:22;21.30;;;13.47;;
2388;SDS011;1205;47.984;7.668;2024-03-08T14:22:51;28.37;;;14.63;;
2388;SDS011;1205;47.984;7.668;2024-03-08T14:25:19;20.93;;;14.07;;
2388;SDS011;1205;47.984;7.668;2024-03-08T14:27:48;19.87;;;13.07;;
2388;SDS011;1205;47.984;7.668;2024-03-08T14:30:15;19.17;;;13.00;;
2388;SDS011;1205;47.984;7.668;2024-03-08T14:32:57;20.73;;;12.63;;
2388;SDS011;1205;47.984;7.668;2024-03-08T14:35:24;17.97;;;12.90;;
2388;SDS011;1205;47.984;7.668;2024-03-08T14:37:50;20.33;;;13.70;;
2388;SDS011;1205;47.984;7.668;2024-03-08T14:40:17;30.57;;;13.97;;
2388;SDS011;1205;47.984;7.668;2024-03-08T14:42:47;20.67;;;13.80;;
2388;SDS011;1205;47.984;7.668;2024-03-08T14:45:16;18.47;;;12.57;;
2388;SDS011;1205;47.984;7.668;2024-03-08T14:47:44;16.73;;;12.00;;
2388;SDS011;1205;47.984;7.668;2024-03-08T14:50:14;17.60;;;12.53;;
2388;SDS011;1205;47.984;7.668;2024-03-08T14:52:43;16.83;;;12.30;;